createdAt,value
2022-12-07T00:01:44.107Z,101367.41
2022-12-07T00:04:14.852Z,101364.34
2022-12-07T00:06:45.288Z,101365.60
2022-12-07T00:09:15.983Z,101364.22
2022-12-07T00:11:46.828Z,101358.59
2022-12-07T00:14:17.196Z,101363.16
2022-12-07T00:16:47.992Z,101364.00
2022-12-07T00:19:18.685Z,101367.01
2022-12-07T00:21:49.165Z,101361.96
2022-12-07T00:24:19.887Z,101358.32
2022-12-07T00:26:50.639Z,101358.68
2022-12-07T00:29:21.368Z,101358.19
2022-12-07T00:31:52.201Z,101357.45
2022-12-07T00:34:22.859Z,101360.45
2022-12-07T00:36:53.614Z,101353.99
2022-12-07T00:39:24.341Z,101354.83
2022-12-07T00:41:55.106Z,101353.06
2022-12-07T00:44:25.914Z,101350.56
2022-12-07T00:46:56.330Z,101351.43
2022-12-07T00:49:27.079Z,101348.23
2022-12-07T00:51:57.495Z,101351.29
2022-12-07T00:54:28.287Z,101348.22
2022-12-07T00:56:58.987Z,101346.32
2022-12-07T00:59:29.736Z,101343.31
2022-12-07T01:02:00.554Z,101339.90
2022-12-07T01:04:31.245Z,101338.06
2022-12-07T01:07:02.019Z,101336.15
2022-12-07T01:09:32.751Z,101337.09
2022-12-07T01:12:03.515Z,101334.70
2022-12-07T01:14:34.269Z,101334.35
2022-12-07T01:17:05.069Z,101336.31
2022-12-07T01:19:35.780Z,101347.60
2022-12-07T01:22:06.548Z,101343.69
2022-12-07T01:24:37.319Z,101343.33
2022-12-07T01:27:08.061Z,101343.52
2022-12-07T01:29:38.810Z,101343.81
2022-12-07T01:32:09.579Z,101342.84
2022-12-07T01:34:40.330Z,101341.55
2022-12-07T01:37:11.098Z,101341.74
2022-12-07T01:39:41.931Z,101344.22
2022-12-07T01:42:12.621Z,101347.86
2022-12-07T01:44:43.385Z,101347.71
2022-12-07T01:47:14.120Z,101355.10
2022-12-07T01:49:44.976Z,101356.38
2022-12-07T01:52:15.646Z,101359.14
2022-12-07T01:54:46.429Z,101356.68
2022-12-07T01:57:17.156Z,101350.94
2022-12-07T01:59:47.903Z,101352.73
2022-12-07T02:02:18.754Z,101352.03
2022-12-07T02:04:49.400Z,101354.00
2022-12-07T02:07:20.178Z,101349.62
2022-12-07T02:09:50.932Z,101346.05
2022-12-07T02:12:21.703Z,101346.03
2022-12-07T02:14:52.457Z,101335.96
2022-12-07T02:17:23.229Z,101334.42
2022-12-07T02:19:53.982Z,101332.18
2022-12-07T02:22:24.761Z,101330.57
2022-12-07T02:24:55.572Z,101329.89
2022-12-07T02:27:26.267Z,101332.98
2022-12-07T02:29:57.253Z,101333.18
2022-12-07T02:32:27.797Z,101334.35
2022-12-07T02:34:58.562Z,101332.74
2022-12-07T02:37:29.324Z,101339.17
2022-12-07T02:40:00.589Z,101341.35
2022-12-07T02:42:30.834Z,101339.24
2022-12-07T02:45:01.594Z,101344.43
2022-12-07T02:47:32.351Z,101342.42
2022-12-07T02:50:03.314Z,101342.01
2022-12-07T02:52:33.868Z,101333.14
2022-12-07T02:55:04.605Z,101327.00
2022-12-07T02:57:35.366Z,101323.41
2022-12-07T03:00:06.424Z,101330.71
2022-12-07T03:02:36.933Z,101331.20
2022-12-07T03:05:07.613Z,101326.94
2022-12-07T03:07:38.410Z,101326.14
2022-12-07T03:10:09.118Z,101326.60
2022-12-07T03:12:39.873Z,101322.09
2022-12-07T03:15:10.638Z,101322.22
2022-12-07T03:17:41.395Z,101318.76
2022-12-07T03:20:12.149Z,101315.90
2022-12-07T03:22:42.915Z,101317.54
2022-12-07T03:25:13.670Z,101311.56
2022-12-07T03:27:44.435Z,101311.59
2022-12-07T03:30:15.180Z,101308.43
2022-12-07T03:32:45.946Z,101304.57
2022-12-07T03:35:16.682Z,101305.70
2022-12-07T03:37:47.463Z,101305.60
2022-12-07T03:40:18.197Z,101305.08
2022-12-07T03:42:48.964Z,101307.85
2022-12-07T03:45:19.713Z,101307.74
2022-12-07T03:47:50.481Z,101306.76
2022-12-07T03:50:21.231Z,101308.28
2022-12-07T03:52:52.063Z,101306.86
2022-12-07T03:55:22.739Z,101306.11
2022-12-07T03:57:53.511Z,101307.01
2022-12-07T04:00:24.257Z,101309.50
2022-12-07T04:02:55.118Z,101309.53
2022-12-07T04:05:25.060Z,101316.63
2022-12-07T04:07:55.314Z,101319.38
2022-12-07T04:10:25.937Z,101323.50
2022-12-07T04:12:56.712Z,101317.01
2022-12-07T04:15:27.472Z,101310.15
2022-12-07T04:17:58.264Z,101307.34
2022-12-07T04:20:29.018Z,101309.23
2022-12-07T04:22:59.816Z,101313.40
2022-12-07T04:25:30.580Z,101313.44
2022-12-07T04:28:01.379Z,101314.71
2022-12-07T04:30:32.143Z,101314.93
2022-12-07T04:33:02.931Z,101323.45
2022-12-07T04:35:33.814Z,101315.53
2022-12-07T04:38:04.511Z,101314.40
2022-12-07T04:40:35.265Z,101310.57
2022-12-07T04:43:06.060Z,101309.48
2022-12-07T04:45:36.856Z,101301.91
2022-12-07T04:48:07.624Z,101310.04
2022-12-07T04:50:43.070Z,101312.07
2022-12-07T04:53:09.187Z,101316.32
2022-12-07T04:55:39.940Z,101314.81
2022-12-07T04:58:10.724Z,101313.67
2022-12-07T05:00:41.571Z,101311.16
2022-12-07T05:03:12.282Z,101314.63
2022-12-07T05:05:43.055Z,101311.52
2022-12-07T05:08:13.915Z,101309.33
2022-12-07T05:10:44.601Z,101309.04
2022-12-07T05:13:15.385Z,101299.98
2022-12-07T05:15:46.153Z,101288.04
2022-12-07T05:18:17.025Z,101289.14
2022-12-07T05:20:47.688Z,101298.04
2022-12-07T05:23:18.495Z,101289.85
2022-12-07T05:25:49.212Z,101292.68
2022-12-07T05:28:19.994Z,101292.69
2022-12-07T05:30:53.448Z,101292.45
2022-12-07T05:33:21.527Z,101290.84
2022-12-07T05:35:52.284Z,101288.90
2022-12-07T05:38:23.110Z,101287.98
2022-12-07T05:40:53.957Z,101290.36
2022-12-07T05:43:24.610Z,101291.19
2022-12-07T05:45:55.435Z,101289.56
2022-12-07T05:48:26.200Z,101292.32
2022-12-07T05:50:56.977Z,101298.91
2022-12-07T05:53:27.819Z,101294.91
2022-12-07T05:55:58.554Z,101296.31
2022-12-07T05:58:29.361Z,101297.85
2022-12-07T06:01:00.157Z,101302.16
2022-12-07T06:03:31.056Z,101297.78
2022-12-07T06:06:01.977Z,101298.22
2022-12-07T06:08:32.712Z,101296.92
2022-12-07T06:11:03.392Z,101292.24
2022-12-07T06:13:34.302Z,101291.90
2022-12-07T06:16:05.043Z,101287.49
2022-12-07T06:18:35.822Z,101288.24
2022-12-07T06:21:06.362Z,101292.39
2022-12-07T06:23:37.166Z,101287.79
2022-12-07T06:26:07.957Z,101279.15
2022-12-07T06:28:38.755Z,101283.53
2022-12-07T06:31:13.589Z,101294.80
2022-12-07T06:33:40.379Z,101295.38
2022-12-07T06:36:11.174Z,101292.38
2022-12-07T06:38:41.955Z,101291.26
2022-12-07T06:41:12.705Z,101289.01
2022-12-07T06:43:43.499Z,101292.12
2022-12-07T06:46:14.350Z,101287.81
2022-12-07T06:48:45.189Z,101287.47
2022-12-07T06:51:15.904Z,101293.41
2022-12-07T06:53:46.690Z,101288.97
2022-12-07T06:56:17.495Z,101288.84
2022-12-07T06:58:48.292Z,101293.41
2022-12-07T07:01:19.180Z,101295.41
2022-12-07T07:03:49.890Z,101299.51
2022-12-07T07:06:20.702Z,101300.28
2022-12-07T07:08:51.585Z,101308.56
2022-12-07T07:11:22.320Z,101304.02
2022-12-07T07:13:53.147Z,101302.78
2022-12-07T07:16:23.964Z,101299.91
2022-12-07T07:18:54.723Z,101303.51
2022-12-07T07:21:25.554Z,101300.64
2022-12-07T07:23:56.340Z,101299.88
2022-12-07T07:26:27.157Z,101301.87
2022-12-07T07:28:57.953Z,101303.07
2022-12-07T07:31:28.823Z,101305.96
2022-12-07T07:33:59.612Z,101310.14
2022-12-07T07:36:30.458Z,101307.68
2022-12-07T07:39:01.308Z,101313.35
2022-12-07T07:41:32.038Z,101314.83
2022-12-07T07:44:02.879Z,101317.45
2022-12-07T07:46:33.684Z,101318.91
2022-12-07T07:49:04.456Z,101319.20
2022-12-07T07:51:35.290Z,101315.48
2022-12-07T07:54:06.088Z,101314.43
2022-12-07T07:56:36.907Z,101312.33
2022-12-07T07:59:07.813Z,101314.66
2022-12-07T08:01:38.566Z,101318.41
2022-12-07T08:04:09.384Z,101315.66
2022-12-07T08:06:40.233Z,101314.47
2022-12-07T08:09:11.058Z,101311.69
2022-12-07T08:11:41.990Z,101309.21
2022-12-07T08:14:12.719Z,101313.33
2022-12-07T08:16:43.566Z,101314.10
2022-12-07T08:19:14.385Z,101313.81
2022-12-07T08:21:45.252Z,101316.16
2022-12-07T08:24:16.069Z,101315.63
2022-12-07T08:26:46.904Z,101318.62
2022-12-07T08:29:17.706Z,101320.47
2022-12-07T08:31:48.542Z,101324.46
2022-12-07T08:34:19.363Z,101326.98
2022-12-07T08:36:50.210Z,101330.21
2022-12-07T08:39:31.392Z,101333.66
2022-12-07T08:41:51.832Z,101336.66
2022-12-07T08:44:22.648Z,101336.77
2022-12-07T08:46:53.555Z,101345.43
2022-12-07T08:49:24.261Z,101349.44
2022-12-07T08:51:55.097Z,101347.44
2022-12-07T08:54:25.897Z,101343.08
2022-12-07T08:56:59.330Z,101340.81
2022-12-07T08:59:27.516Z,101334.59
2022-12-07T09:01:58.424Z,101326.36
2022-12-07T09:04:29.349Z,101328.05
2022-12-07T09:07:00.081Z,101327.16
2022-12-07T09:09:30.748Z,101325.59
2022-12-07T09:12:01.629Z,101324.09
2022-12-07T09:14:32.400Z,101322.90
2022-12-07T09:17:03.172Z,101321.80
2022-12-07T09:19:33.971Z,101319.37
2022-12-07T09:22:04.795Z,101320.66
2022-12-07T09:24:35.585Z,101320.75
2022-12-07T09:27:06.396Z,101320.97
2022-12-07T09:29:37.187Z,101321.54
2022-12-07T09:32:11.607Z,101325.19
2022-12-07T09:34:38.944Z,101329.15
2022-12-07T09:37:09.762Z,101329.64
2022-12-07T09:39:43.440Z,101328.98
2022-12-07T09:42:11.206Z,101327.62
2022-12-07T09:44:41.999Z,101327.29
2022-12-07T09:47:12.846Z,101323.29
2022-12-07T09:49:43.602Z,101322.40
2022-12-07T09:52:14.426Z,101320.03
2022-12-07T09:54:45.224Z,101324.01
2022-12-07T09:57:16.110Z,101320.65
2022-12-07T09:59:46.790Z,101319.34
2022-12-07T10:02:17.661Z,101313.57
2022-12-07T10:04:48.435Z,101314.60
2022-12-07T10:07:19.237Z,101318.41
2022-12-07T10:09:49.774Z,101319.55
2022-12-07T10:12:20.610Z,101318.06
2022-12-07T10:15:06.765Z,101316.57
2022-12-07T10:17:22.128Z,101317.29
2022-12-07T10:19:52.911Z,101320.86
2022-12-07T10:22:28.835Z,101320.80
2022-12-07T10:24:54.496Z,101316.11
2022-12-07T10:27:25.300Z,101319.40
2022-12-07T10:29:56.091Z,101318.37
2022-12-07T10:32:26.981Z,101316.05
2022-12-07T10:34:57.677Z,101315.75
2022-12-07T10:37:28.486Z,101310.00
2022-12-07T10:39:59.261Z,101309.59
2022-12-07T10:42:30.121Z,101307.27
2022-12-07T10:45:01.308Z,101300.57
2022-12-07T10:47:31.805Z,101287.53
2022-12-07T10:50:02.377Z,101292.75
2022-12-07T10:52:33.167Z,101288.50
2022-12-07T10:55:04.244Z,101289.29
2022-12-07T10:57:34.726Z,101287.46
2022-12-07T11:00:05.123Z,101284.30
2022-12-07T11:02:36.047Z,101281.77
2022-12-07T11:05:06.727Z,101282.98
2022-12-07T11:07:37.633Z,101279.99
2022-12-07T11:10:09.684Z,101279.75
2022-12-07T11:12:38.916Z,101277.83
2022-12-07T11:15:09.662Z,101278.57
2022-12-07T11:17:40.419Z,101273.29
2022-12-07T11:20:11.159Z,101271.32
2022-12-07T11:22:41.962Z,101265.84
2022-12-07T11:25:12.680Z,101263.96
2022-12-07T11:27:43.436Z,101255.05
2022-12-07T11:30:14.144Z,101252.32
2022-12-07T11:32:44.904Z,101253.02
2022-12-07T11:35:15.642Z,101246.52
2022-12-07T11:37:46.492Z,101240.00
2022-12-07T11:40:17.113Z,101240.78
2022-12-07T11:42:47.863Z,101231.17
2022-12-07T11:45:18.584Z,101228.62
2022-12-07T11:47:49.338Z,101232.50
2022-12-07T11:50:20.682Z,101233.76
2022-12-07T11:52:50.833Z,101235.67
2022-12-07T11:55:23.691Z,101232.12
2022-12-07T11:57:52.291Z,101228.74
2022-12-07T12:00:23.081Z,101229.10
2022-12-07T12:02:53.932Z,101230.68
2022-12-07T12:05:24.482Z,101223.41
2022-12-07T12:10:25.962Z,101214.58
2022-12-07T12:15:27.497Z,101220.60
2022-12-07T12:17:58.179Z,101212.62
2022-12-07T12:20:29.003Z,101211.85
2022-12-07T12:22:59.656Z,101205.71
2022-12-07T12:25:30.404Z,101200.53
2022-12-07T12:28:01.117Z,101199.89
2022-12-07T12:30:31.852Z,101204.61
2022-12-07T12:33:02.586Z,101199.44
2022-12-07T12:35:33.366Z,101194.50
2022-12-07T12:38:04.086Z,101196.63
2022-12-07T12:40:34.784Z,101199.78
2022-12-07T12:43:05.529Z,101199.70
2022-12-07T12:45:36.377Z,101193.14
2022-12-07T12:48:07.050Z,101197.58
2022-12-07T12:50:37.770Z,101197.40
2022-12-07T12:53:08.452Z,101197.87
2022-12-07T12:55:39.157Z,101197.95
2022-12-07T12:58:09.891Z,101198.25
2022-12-07T13:00:40.627Z,101202.14
2022-12-07T13:03:13.263Z,101201.17
2022-12-07T13:05:42.122Z,101200.01
2022-12-07T13:08:12.893Z,101197.34
2022-12-07T13:10:43.611Z,101190.01
2022-12-07T13:13:14.368Z,101185.91
2022-12-07T13:15:45.108Z,101184.94
2022-12-07T13:18:15.858Z,101181.58
2022-12-07T13:20:46.610Z,101176.87
2022-12-07T13:23:17.341Z,101170.19
2022-12-07T13:25:48.174Z,101168.52
2022-12-07T13:28:18.835Z,101163.43
2022-12-07T13:30:49.598Z,101161.16
2022-12-07T13:33:20.358Z,101158.86
2022-12-07T13:35:51.038Z,101158.19
2022-12-07T13:38:21.789Z,101156.28
2022-12-07T13:40:52.536Z,101151.58
2022-12-07T13:43:23.272Z,101155.24
2022-12-07T13:45:54.095Z,101155.37
2022-12-07T13:48:24.755Z,101153.06
2022-12-07T13:50:55.495Z,101147.97
2022-12-07T13:53:26.272Z,101141.23
2022-12-07T13:55:57.004Z,101142.96
2022-12-07T13:58:27.730Z,101136.21
2022-12-07T14:00:58.599Z,101142.59
2022-12-07T14:03:29.295Z,101138.64
2022-12-07T14:06:00.036Z,101140.14
2022-12-07T14:08:30.739Z,101139.26
2022-12-07T14:11:01.378Z,101140.95
2022-12-07T14:13:32.202Z,101143.71
2022-12-07T14:16:02.843Z,101141.74
2022-12-07T14:18:33.571Z,101141.36
2022-12-07T14:21:04.325Z,101138.75
2022-12-07T14:23:35.139Z,101139.01
2022-12-07T14:26:05.774Z,101140.35
2022-12-07T14:28:36.631Z,101140.44
2022-12-07T14:31:07.276Z,101140.15
2022-12-07T14:33:37.975Z,101141.73
2022-12-07T14:36:08.726Z,101139.49
2022-12-07T14:38:39.443Z,101137.00
2022-12-07T14:41:10.173Z,101127.23
2022-12-07T14:43:54.136Z,101127.76
2022-12-07T14:46:11.731Z,101123.07
2022-12-07T14:53:43.803Z,101117.06
2022-12-07T14:56:14.514Z,101119.82
2022-12-07T14:58:45.221Z,101125.37
2022-12-07T15:01:15.955Z,101125.32
2022-12-07T15:03:46.797Z,101126.05
2022-12-07T15:06:17.419Z,101124.38
2022-12-07T15:08:48.118Z,101126.69
2022-12-07T15:11:18.840Z,101128.90
2022-12-07T15:13:49.580Z,101126.53
2022-12-07T15:16:20.378Z,101129.85
2022-12-07T15:19:19.370Z,101123.79
2022-12-07T15:21:21.786Z,101124.41
2022-12-07T15:23:52.517Z,101123.99
2022-12-07T15:26:23.287Z,101123.01
2022-12-07T15:28:54.003Z,101122.08
2022-12-07T15:31:53.840Z,101114.35
2022-12-07T15:33:55.493Z,101110.80
2022-12-07T15:36:26.250Z,101112.04
2022-12-07T15:39:13.649Z,101110.39
2022-12-07T15:41:27.778Z,101103.74
2022-12-07T15:43:58.503Z,101105.08
2022-12-07T15:46:29.421Z,101104.18
2022-12-07T15:49:00.005Z,101106.86
2022-12-07T15:51:30.776Z,101102.81
2022-12-07T15:54:01.516Z,101101.42
2022-12-07T15:56:32.285Z,101101.46
2022-12-07T15:59:03.041Z,101097.81
2022-12-07T16:01:33.912Z,101094.76
2022-12-07T16:04:04.613Z,101091.40
2022-12-07T16:06:35.321Z,101091.66
2022-12-07T16:09:06.066Z,101093.13
2022-12-07T16:11:36.921Z,101090.93
2022-12-07T16:14:07.592Z,101088.86
2022-12-07T16:16:38.409Z,101087.73
2022-12-07T16:19:08.933Z,101085.55
2022-12-07T16:21:39.713Z,101083.29
2022-12-07T16:24:10.465Z,101082.23
2022-12-07T16:26:46.327Z,101074.93
2022-12-07T16:29:12.008Z,101070.66
2022-12-07T16:31:42.865Z,101069.92
2022-12-07T16:34:13.558Z,101063.21
2022-12-07T16:37:04.887Z,101057.05
2022-12-07T16:39:15.139Z,101053.21
2022-12-07T16:41:45.921Z,101058.53
2022-12-07T16:44:16.699Z,101059.53
2022-12-07T16:46:47.577Z,101057.42
2022-12-07T16:49:18.251Z,101052.65
2022-12-07T16:51:52.351Z,101050.00
2022-12-07T16:54:19.801Z,101047.54
2022-12-07T16:56:50.577Z,101045.32
2022-12-07T16:59:21.339Z,101042.49
2022-12-07T17:01:52.115Z,101041.68
2022-12-07T17:04:22.932Z,101040.15
2022-12-07T17:06:53.685Z,101039.68
2022-12-07T17:09:24.442Z,101032.16
2022-12-07T17:11:55.229Z,101029.20
2022-12-07T17:14:26.006Z,101025.30
2022-12-07T17:16:56.890Z,101024.83
2022-12-07T17:19:27.575Z,101025.45
2022-12-07T17:21:58.371Z,101023.25
2022-12-07T17:24:29.227Z,101027.20
2022-12-07T17:26:59.944Z,101025.78
2022-12-07T17:29:30.729Z,101026.05
2022-12-07T17:32:01.580Z,101024.37
2022-12-07T17:34:32.301Z,101020.39
2022-12-07T17:37:03.105Z,101018.92
2022-12-07T17:39:33.941Z,101017.87
2022-12-07T17:42:04.687Z,101016.78
2022-12-07T17:44:35.408Z,101017.14
2022-12-07T17:47:06.264Z,101017.21
2022-12-07T17:49:36.967Z,101019.27
2022-12-07T17:52:07.773Z,101020.27
2022-12-07T17:54:38.552Z,101019.37
2022-12-07T17:57:09.334Z,101017.09
2022-12-07T17:59:40.111Z,101011.08
2022-12-07T18:02:10.913Z,101005.91
2022-12-07T18:04:41.815Z,101001.71
2022-12-07T18:07:12.491Z,101001.02
2022-12-07T18:09:43.267Z,101000.13
2022-12-07T18:12:14.067Z,101001.97
2022-12-07T18:14:44.955Z,101000.09
2022-12-07T18:17:15.642Z,100995.99
2022-12-07T18:19:46.429Z,100989.30
2022-12-07T18:22:17.240Z,100987.44
2022-12-07T18:24:48.022Z,100986.87
2022-12-07T18:27:18.923Z,100982.30
2022-12-07T18:29:49.595Z,100979.33
2022-12-07T18:32:20.519Z,100973.64
2022-12-07T18:34:51.183Z,100971.24
2022-12-07T18:37:21.982Z,100970.29
2022-12-07T18:39:52.762Z,100970.05
2022-12-07T18:42:23.568Z,100968.85
2022-12-07T18:44:54.507Z,100970.90
2022-12-07T18:47:25.142Z,100974.64
2022-12-07T18:49:55.931Z,100973.66
2022-12-07T18:52:26.775Z,100968.59
2022-12-07T18:54:57.528Z,100963.45
2022-12-07T18:57:28.317Z,100958.94
2022-12-07T18:59:59.108Z,100955.28
2022-12-07T19:02:29.950Z,100953.76
2022-12-07T19:05:00.885Z,100949.33
2022-12-07T19:07:31.515Z,100945.75
2022-12-07T19:10:02.292Z,100950.14
2022-12-07T19:12:33.166Z,100953.92
2022-12-07T19:15:03.860Z,100955.07
2022-12-07T19:17:34.398Z,100955.58
2022-12-07T19:20:05.178Z,100957.40
2022-12-07T19:22:35.994Z,100958.37
2022-12-07T19:25:06.808Z,100947.82
2022-12-07T19:27:37.560Z,100942.52
2022-12-07T19:30:08.345Z,100942.88
2022-12-07T19:32:39.140Z,100936.96
2022-12-07T19:35:09.924Z,100931.28
2022-12-07T19:37:40.816Z,100923.40
2022-12-07T19:40:11.515Z,100919.59
2022-12-07T19:42:42.094Z,100924.46
2022-12-07T19:45:12.752Z,100926.64
2022-12-07T19:47:43.553Z,100922.33
2022-12-07T19:50:14.332Z,100920.05
2022-12-07T19:52:45.147Z,100920.62
2022-12-07T19:55:15.922Z,100915.47
2022-12-07T19:57:46.783Z,100912.30
2022-12-07T20:00:17.635Z,100907.88
2022-12-07T20:02:48.470Z,100906.34
2022-12-07T20:05:19.106Z,100907.74
2022-12-07T20:07:49.995Z,100911.02
2022-12-07T20:10:25.988Z,100905.07
2022-12-07T20:12:51.529Z,100901.84
2022-12-07T20:15:22.365Z,100900.87
2022-12-07T20:17:53.155Z,100895.47
2022-12-07T20:20:23.968Z,100887.37
2022-12-07T20:22:54.809Z,100885.55
2022-12-07T20:25:25.674Z,100882.17
2022-12-07T20:27:56.418Z,100875.41
2022-12-07T20:30:27.264Z,100873.88
2022-12-07T20:32:58.053Z,100872.00
2022-12-07T20:35:28.986Z,100871.14
2022-12-07T20:37:59.705Z,100873.74
2022-12-07T20:40:30.605Z,100871.64
2022-12-07T20:43:01.345Z,100871.99
2022-12-07T20:45:32.265Z,100867.42
2022-12-07T20:48:03.006Z,100864.83
2022-12-07T20:50:38.972Z,100862.10
2022-12-07T20:53:04.387Z,100858.05
2022-12-07T20:55:35.209Z,100852.89
2022-12-07T20:58:06.026Z,100850.82
2022-12-07T21:00:36.842Z,100849.28
2022-12-07T21:03:07.677Z,100847.50
2022-12-07T21:05:38.481Z,100844.81
2022-12-07T21:08:09.420Z,100841.94
2022-12-07T21:10:40.124Z,100841.88
2022-12-07T21:13:10.948Z,100838.38
2022-12-07T21:15:41.865Z,100835.64
2022-12-07T21:18:12.604Z,100835.43
2022-12-07T21:20:43.424Z,100835.56
2022-12-07T21:23:14.267Z,100835.05
2022-12-07T21:25:45.079Z,100833.26
2022-12-07T21:28:15.923Z,100828.33
2022-12-07T21:31:12.064Z,100829.90
2022-12-07T21:33:17.293Z,100825.57
2022-12-07T21:35:48.112Z,100825.04
2022-12-07T21:38:19.023Z,100829.91
2022-12-07T21:40:49.761Z,100824.61
2022-12-07T21:43:20.618Z,100822.47
2022-12-07T21:45:51.429Z,100826.97
2022-12-07T21:48:21.912Z,100825.87
2022-12-07T21:50:52.736Z,100823.73
2022-12-07T21:53:23.592Z,100824.82
2022-12-07T21:55:54.409Z,100820.09
2022-12-07T21:58:25.240Z,100821.20
2022-12-07T22:00:56.131Z,100820.99
2022-12-07T22:03:26.916Z,100811.64
2022-12-07T22:05:57.721Z,100811.32
2022-12-07T22:08:28.632Z,100811.89
2022-12-07T22:10:59.353Z,100808.30
2022-12-07T22:13:30.188Z,100808.29
2022-12-07T22:16:01.102Z,100816.58
2022-12-07T22:18:31.837Z,100813.20
2022-12-07T22:21:02.681Z,100808.96
2022-12-07T22:23:32.972Z,100808.71
2022-12-07T22:26:03.804Z,100800.96
2022-12-07T22:28:34.720Z,100794.91
2022-12-07T22:31:05.604Z,100792.06
2022-12-07T22:33:36.426Z,100789.76
2022-12-07T22:36:07.187Z,100790.23
2022-12-07T22:38:37.995Z,100784.57
2022-12-07T22:41:08.844Z,100781.70
2022-12-07T22:43:39.696Z,100782.73
2022-12-07T22:46:10.636Z,100780.60
2022-12-07T22:48:41.407Z,100780.38
2022-12-07T22:51:12.278Z,100774.87
2022-12-07T22:53:42.785Z,100775.93
2022-12-07T22:56:12.798Z,100773.63
2022-12-07T22:58:43.379Z,100771.12
2022-12-07T23:01:14.280Z,100767.44
2022-12-07T23:03:45.140Z,100760.06
2022-12-07T23:06:15.955Z,100752.75
2022-12-07T23:08:46.796Z,100754.17
2022-12-07T23:11:17.649Z,100751.10
2022-12-07T23:13:48.502Z,100749.73
2022-12-07T23:16:19.435Z,100753.43
2022-12-07T23:18:50.197Z,100757.17
2022-12-07T23:21:21.080Z,100751.30
2022-12-07T23:23:51.903Z,100752.28
2022-12-07T23:26:22.423Z,100744.61
2022-12-07T23:28:52.414Z,100743.29
2022-12-07T23:31:23.315Z,100745.29
2022-12-07T23:33:53.262Z,100744.65
2022-12-07T23:36:24.134Z,100738.53
2022-12-07T23:38:54.955Z,100734.20
2022-12-07T23:41:25.812Z,100730.98
2022-12-07T23:43:56.661Z,100727.44
2022-12-07T23:46:27.568Z,100724.35
2022-12-07T23:48:58.420Z,100721.05
2022-12-07T23:51:29.226Z,100716.70
2022-12-07T23:54:00.039Z,100713.01
2022-12-07T23:56:30.875Z,100710.31
2022-12-07T23:59:01.712Z,100709.92
